sensor_id;sensor_type;location;lat;lon;timestamp;P1;durP1;ratioP1;P2;durP2;ratioP2
26530;SDS011;14201;43.188;24.160;2023-02-28T00:01:21;30.63;;;20.73;;
26530;SDS011;14201;43.188;24.160;2023-02-28T00:03:47;28.48;;;19.52;;
26530;SDS011;14201;43.188;24.160;2023-02-28T00:06:12;28.70;;;20.17;;
26530;SDS011;14201;43.188;24.160;2023-02-28T00:08:38;30.17;;;19.95;;
26530;SDS011;14201;43.188;24.160;2023-02-28T00:11:05;29.13;;;20.17;;
26530;SDS011;14201;43.188;24.160;2023-02-28T00:13:33;30.30;;;20.60;;
26530;SDS011;14201;43.188;24.160;2023-02-28T00:16:11;29.40;;;19.90;;
26530;SDS011;14201;43.188;24.160;2023-02-28T00:18:39;29.90;;;19.50;;
26530;SDS011;14201;43.188;24.160;2023-02-28T00:21:05;26.55;;;19.13;;
26530;SDS011;14201;43.188;24.160;2023-02-28T00:23:31;26.10;;;18.48;;
26530;SDS011;14201;43.188;24.160;2023-02-28T00:25:57;26.63;;;18.77;;
26530;SDS011;14201;43.188;24.160;2023-02-28T00:28:23;25.40;;;18.33;;
26530;SDS011;14201;43.188;24.160;2023-02-28T00:30:49;25.20;;;18.23;;
26530;SDS011;14201;43.188;24.160;2023-02-28T00:33:15;28.83;;;20.10;;
26530;SDS011;14201;43.188;24.160;2023-02-28T00:35:40;27.05;;;19.10;;
26530;SDS011;14201;43.188;24.160;2023-02-28T00:38:06;25.75;;;18.55;;
26530;SDS011;14201;43.188;24.160;2023-02-28T00:40:32;26.80;;;18.67;;
26530;SDS011;14201;43.188;24.160;2023-02-28T00:42:58;23.92;;;16.92;;
26530;SDS011;14201;43.188;24.160;2023-02-28T00:45:23;27.33;;;18.13;;
26530;SDS011;14201;43.188;24.160;2023-02-28T00:47:49;29.20;;;19.15;;
26530;SDS011;14201;43.188;24.160;2023-02-28T00:50:20;28.95;;;20.02;;
26530;SDS011;14201;43.188;24.160;2023-02-28T00:52:46;36.05;;;25.20;;
26530;SDS011;14201;43.188;24.160;2023-02-28T00:55:12;35.25;;;25.17;;
26530;SDS011;14201;43.188;24.160;2023-02-28T00:57:37;31.35;;;20.88;;
26530;SDS011;14201;43.188;24.160;2023-02-28T01:00:04;32.35;;;22.75;;
26530;SDS011;14201;43.188;24.160;2023-02-28T01:02:30;28.10;;;20.80;;
26530;SDS011;14201;43.188;24.160;2023-02-28T01:04:56;35.88;;;24.80;;
26530;SDS011;14201;43.188;24.160;2023-02-28T01:07:22;29.83;;;21.90;;
26530;SDS011;14201;43.188;24.160;2023-02-28T01:09:48;31.73;;;23.08;;
26530;SDS011;14201;43.188;24.160;2023-02-28T01:12:14;32.58;;;21.30;;
26530;SDS011;14201;43.188;24.160;2023-02-28T01:14:40;33.78;;;22.67;;
26530;SDS011;14201;43.188;24.160;2023-02-28T01:17:07;30.23;;;22.05;;
26530;SDS011;14201;43.188;24.160;2023-02-28T01:19:33;28.88;;;21.88;;
26530;SDS011;14201;43.188;24.160;2023-02-28T01:22:05;31.08;;;22.95;;
26530;SDS011;14201;43.188;24.160;2023-02-28T01:24:31;33.65;;;25.08;;
26530;SDS011;14201;43.188;24.160;2023-02-28T01:26:57;28.40;;;21.25;;
26530;SDS011;14201;43.188;24.160;2023-02-28T01:29:23;26.58;;;20.00;;
26530;SDS011;14201;43.188;24.160;2023-02-28T01:31:48;22.50;;;16.30;;
26530;SDS011;14201;43.188;24.160;2023-02-28T01:34:14;22.88;;;17.10;;
26530;SDS011;14201;43.188;24.160;2023-02-28T01:36:39;24.80;;;17.88;;
26530;SDS011;14201;43.188;24.160;2023-02-28T01:39:05;25.77;;;19.13;;
26530;SDS011;14201;43.188;24.160;2023-02-28T01:41:32;23.80;;;17.42;;
26530;SDS011;14201;43.188;24.160;2023-02-28T01:44:01;21.13;;;15.63;;
26530;SDS011;14201;43.188;24.160;2023-02-28T01:46:30;22.70;;;15.40;;
26530;SDS011;14201;43.188;24.160;2023-02-28T01:51:32;20.08;;;14.05;;
26530;SDS011;14201;43.188;24.160;2023-02-28T01:54:03;21.20;;;14.63;;
26530;SDS011;14201;43.188;24.160;2023-02-28T01:56:38;26.40;;;15.02;;
26530;SDS011;14201;43.188;24.160;2023-02-28T01:59:08;18.58;;;13.88;;
26530;SDS011;14201;43.188;24.160;2023-02-28T02:01:34;19.67;;;15.13;;
26530;SDS011;14201;43.188;24.160;2023-02-28T02:04:01;20.67;;;14.07;;
26530;SDS011;14201;43.188;24.160;2023-02-28T02:06:38;20.45;;;14.07;;
26530;SDS011;14201;43.188;24.160;2023-02-28T02:09:07;22.35;;;15.20;;
26530;SDS011;14201;43.188;24.160;2023-02-28T02:11:33;20.23;;;14.85;;
26530;SDS011;14201;43.188;24.160;2023-02-28T02:17:01;20.75;;;14.93;;
26530;SDS011;14201;43.188;24.160;2023-02-28T02:25:43;19.42;;;13.93;;
26530;SDS011;14201;43.188;24.160;2023-02-28T02:28:22;20.90;;;14.77;;
26530;SDS011;14201;43.188;24.160;2023-02-28T02:36:46;21.15;;;14.18;;
26530;SDS011;14201;43.188;24.160;2023-02-28T02:39:59;19.73;;;14.15;;
26530;SDS011;14201;43.188;24.160;2023-02-28T02:42:14;27.90;;;19.48;;
26530;SDS011;14201;43.188;24.160;2023-02-28T02:47:40;37.70;;;27.33;;
26530;SDS011;14201;43.188;24.160;2023-02-28T02:50:08;41.80;;;31.90;;
26530;SDS011;14201;43.188;24.160;2023-02-28T02:52:40;26.75;;;19.48;;
26530;SDS011;14201;43.188;24.160;2023-02-28T02:55:09;30.08;;;21.55;;
26530;SDS011;14201;43.188;24.160;2023-02-28T02:57:40;31.52;;;20.60;;
26530;SDS011;14201;43.188;24.160;2023-02-28T03:02:35;38.08;;;25.67;;
26530;SDS011;14201;43.188;24.160;2023-02-28T03:05:14;40.47;;;29.17;;
26530;SDS011;14201;43.188;24.160;2023-02-28T03:07:45;46.22;;;30.55;;
26530;SDS011;14201;43.188;24.160;2023-02-28T03:16:03;44.97;;;28.17;;
26530;SDS011;14201;43.188;24.160;2023-02-28T03:18:59;36.65;;;24.13;;
26530;SDS011;14201;43.188;24.160;2023-02-28T03:21:32;52.45;;;37.00;;
26530;SDS011;14201;43.188;24.160;2023-02-28T03:26:55;49.60;;;32.35;;
26530;SDS011;14201;43.188;24.160;2023-02-28T03:29:39;63.95;;;41.65;;
26530;SDS011;14201;43.188;24.160;2023-02-28T03:32:13;56.92;;;35.60;;
26530;SDS011;14201;43.188;24.160;2023-02-28T03:34:46;42.80;;;28.90;;
26530;SDS011;14201;43.188;24.160;2023-02-28T03:37:20;46.80;;;27.27;;
26530;SDS011;14201;43.188;24.160;2023-02-28T03:39:59;45.47;;;26.67;;
26530;SDS011;14201;43.188;24.160;2023-02-28T03:42:31;36.17;;;23.67;;
26530;SDS011;14201;43.188;24.160;2023-02-28T03:45:01;40.85;;;22.38;;
26530;SDS011;14201;43.188;24.160;2023-02-28T03:47:39;37.78;;;22.15;;
26530;SDS011;14201;43.188;24.160;2023-02-28T03:50:29;48.75;;;29.27;;
26530;SDS011;14201;43.188;24.160;2023-02-28T03:53:02;62.20;;;36.47;;
26530;SDS011;14201;43.188;24.160;2023-02-28T03:55:44;51.95;;;32.40;;
26530;SDS011;14201;43.188;24.160;2023-02-28T03:58:31;54.75;;;31.65;;
26530;SDS011;14201;43.188;24.160;2023-02-28T04:01:21;51.22;;;30.58;;
26530;SDS011;14201;43.188;24.160;2023-02-28T04:03:54;46.88;;;29.42;;
26530;SDS011;14201;43.188;24.160;2023-02-28T04:06:21;37.75;;;22.65;;
26530;SDS011;14201;43.188;24.160;2023-02-28T04:08:48;39.65;;;23.55;;
26530;SDS011;14201;43.188;24.160;2023-02-28T04:13:55;45.63;;;26.85;;
26530;SDS011;14201;43.188;24.160;2023-02-28T04:16:21;51.38;;;30.08;;
26530;SDS011;14201;43.188;24.160;2023-02-28T04:18:46;50.35;;;24.10;;
26530;SDS011;14201;43.188;24.160;2023-02-28T04:21:12;37.17;;;21.45;;
26530;SDS011;14201;43.188;24.160;2023-02-28T04:23:38;39.70;;;23.13;;
26530;SDS011;14201;43.188;24.160;2023-02-28T04:26:04;43.97;;;26.05;;
26530;SDS011;14201;43.188;24.160;2023-02-28T04:28:32;44.35;;;24.92;;
26530;SDS011;14201;43.188;24.160;2023-02-28T04:31:02;33.30;;;19.48;;
26530;SDS011;14201;43.188;24.160;2023-02-28T04:33:29;32.22;;;18.95;;
26530;SDS011;14201;43.188;24.160;2023-02-28T04:36:00;30.30;;;18.45;;
26530;SDS011;14201;43.188;24.160;2023-02-28T04:38:32;35.30;;;18.45;;
26530;SDS011;14201;43.188;24.160;2023-02-28T04:40:59;24.40;;;16.88;;
26530;SDS011;14201;43.188;24.160;2023-02-28T04:43:26;25.00;;;17.42;;
26530;SDS011;14201;43.188;24.160;2023-02-28T04:45:53;34.75;;;24.98;;
26530;SDS011;14201;43.188;24.160;2023-02-28T04:48:22;43.40;;;30.95;;
26530;SDS011;14201;43.188;24.160;2023-02-28T04:50:49;34.35;;;25.10;;
26530;SDS011;14201;43.188;24.160;2023-02-28T04:53:14;35.88;;;23.55;;
26530;SDS011;14201;43.188;24.160;2023-02-28T04:55:40;39.05;;;26.70;;
26530;SDS011;14201;43.188;24.160;2023-02-28T04:58:05;43.03;;;31.33;;
26530;SDS011;14201;43.188;24.160;2023-02-28T05:00:34;29.40;;;19.17;;
26530;SDS011;14201;43.188;24.160;2023-02-28T05:03:00;35.85;;;20.08;;
26530;SDS011;14201;43.188;24.160;2023-02-28T05:05:26;33.85;;;25.40;;
26530;SDS011;14201;43.188;24.160;2023-02-28T05:07:51;35.67;;;23.80;;
26530;SDS011;14201;43.188;24.160;2023-02-28T05:10:21;50.47;;;31.25;;
26530;SDS011;14201;43.188;24.160;2023-02-28T05:12:49;40.80;;;26.55;;
26530;SDS011;14201;43.188;24.160;2023-02-28T05:15:17;41.25;;;28.67;;
26530;SDS011;14201;43.188;24.160;2023-02-28T05:17:43;37.47;;;25.00;;
26530;SDS011;14201;43.188;24.160;2023-02-28T05:20:09;42.58;;;27.58;;
26530;SDS011;14201;43.188;24.160;2023-02-28T05:22:41;37.75;;;23.30;;
26530;SDS011;14201;43.188;24.160;2023-02-28T05:25:12;34.22;;;22.73;;
26530;SDS011;14201;43.188;24.160;2023-02-28T05:27:41;28.13;;;15.82;;
26530;SDS011;14201;43.188;24.160;2023-02-28T05:30:07;29.75;;;21.92;;
26530;SDS011;14201;43.188;24.160;2023-02-28T05:32:38;36.72;;;25.60;;
26530;SDS011;14201;43.188;24.160;2023-02-28T05:35:08;29.27;;;20.52;;
26530;SDS011;14201;43.188;24.160;2023-02-28T05:37:36;55.80;;;39.85;;
26530;SDS011;14201;43.188;24.160;2023-02-28T05:40:03;37.78;;;29.08;;
26530;SDS011;14201;43.188;24.160;2023-02-28T05:42:35;29.83;;;18.98;;
26530;SDS011;14201;43.188;24.160;2023-02-28T05:45:01;39.42;;;23.15;;
26530;SDS011;14201;43.188;24.160;2023-02-28T05:47:26;100.60;;;91.18;;
26530;SDS011;14201;43.188;24.160;2023-02-28T05:49:52;25.83;;;16.98;;
26530;SDS011;14201;43.188;24.160;2023-02-28T05:52:18;44.22;;;31.83;;
26530;SDS011;14201;43.188;24.160;2023-02-28T05:54:43;51.75;;;31.77;;
26530;SDS011;14201;43.188;24.160;2023-02-28T05:57:09;51.55;;;32.47;;
26530;SDS011;14201;43.188;24.160;2023-02-28T05:59:34;35.22;;;22.55;;
26530;SDS011;14201;43.188;24.160;2023-02-28T06:02:05;32.08;;;22.38;;
26530;SDS011;14201;43.188;24.160;2023-02-28T06:04:33;37.28;;;23.60;;
26530;SDS011;14201;43.188;24.160;2023-02-28T06:06:59;37.60;;;24.75;;
26530;SDS011;14201;43.188;24.160;2023-02-28T06:09:24;38.85;;;27.50;;
26530;SDS011;14201;43.188;24.160;2023-02-28T06:11:50;38.95;;;26.70;;
26530;SDS011;14201;43.188;24.160;2023-02-28T06:14:16;54.92;;;36.80;;
26530;SDS011;14201;43.188;24.160;2023-02-28T06:16:43;34.92;;;23.20;;
26530;SDS011;14201;43.188;24.160;2023-02-28T06:19:10;34.47;;;24.85;;
26530;SDS011;14201;43.188;24.160;2023-02-28T06:21:36;34.75;;;23.00;;
26530;SDS011;14201;43.188;24.160;2023-02-28T06:24:02;36.95;;;25.92;;
26530;SDS011;14201;43.188;24.160;2023-02-28T06:26:28;27.23;;;19.73;;
26530;SDS011;14201;43.188;24.160;2023-02-28T06:28:54;35.10;;;23.92;;
26530;SDS011;14201;43.188;24.160;2023-02-28T06:31:20;27.05;;;19.67;;
26530;SDS011;14201;43.188;24.160;2023-02-28T06:33:46;30.42;;;19.73;;
26530;SDS011;14201;43.188;24.160;2023-02-28T06:36:12;32.47;;;21.02;;
26530;SDS011;14201;43.188;24.160;2023-02-28T06:38:39;33.28;;;21.20;;
26530;SDS011;14201;43.188;24.160;2023-02-28T06:41:06;31.10;;;22.63;;
26530;SDS011;14201;43.188;24.160;2023-02-28T06:43:40;28.52;;;19.63;;
26530;SDS011;14201;43.188;24.160;2023-02-28T06:46:07;25.92;;;18.27;;
26530;SDS011;14201;43.188;24.160;2023-02-28T06:48:35;24.88;;;17.88;;
26530;SDS011;14201;43.188;24.160;2023-02-28T06:51:02;24.73;;;16.65;;
26530;SDS011;14201;43.188;24.160;2023-02-28T06:53:32;22.55;;;16.40;;
26530;SDS011;14201;43.188;24.160;2023-02-28T06:55:58;21.20;;;15.05;;
26530;SDS011;14201;43.188;24.160;2023-02-28T06:58:24;20.23;;;15.90;;
26530;SDS011;14201;43.188;24.160;2023-02-28T07:00:50;18.90;;;14.70;;
26530;SDS011;14201;43.188;24.160;2023-02-28T07:03:17;20.10;;;15.02;;
26530;SDS011;14201;43.188;24.160;2023-02-28T07:05:43;23.92;;;17.33;;
26530;SDS011;14201;43.188;24.160;2023-02-28T07:08:10;20.05;;;14.88;;
26530;SDS011;14201;43.188;24.160;2023-02-28T07:10:39;20.73;;;15.25;;
26530;SDS011;14201;43.188;24.160;2023-02-28T07:13:05;19.58;;;15.40;;
26530;SDS011;14201;43.188;24.160;2023-02-28T07:15:32;22.00;;;15.15;;
26530;SDS011;14201;43.188;24.160;2023-02-28T07:17:57;19.80;;;14.05;;
26530;SDS011;14201;43.188;24.160;2023-02-28T07:20:24;20.02;;;14.60;;
26530;SDS011;14201;43.188;24.160;2023-02-28T07:22:50;27.80;;;21.67;;
26530;SDS011;14201;43.188;24.160;2023-02-28T07:25:27;18.98;;;14.80;;
26530;SDS011;14201;43.188;24.160;2023-02-28T07:27:54;17.50;;;13.75;;
26530;SDS011;14201;43.188;24.160;2023-02-28T07:30:21;19.33;;;14.70;;
26530;SDS011;14201;43.188;24.160;2023-02-28T07:32:46;16.92;;;13.60;;
26530;SDS011;14201;43.188;24.160;2023-02-28T07:35:12;17.02;;;12.90;;
26530;SDS011;14201;43.188;24.160;2023-02-28T07:37:40;17.38;;;14.02;;
26530;SDS011;14201;43.188;24.160;2023-02-28T07:40:07;15.90;;;13.68;;
26530;SDS011;14201;43.188;24.160;2023-02-28T07:42:34;21.30;;;15.38;;
26530;SDS011;14201;43.188;24.160;2023-02-28T07:45:00;22.23;;;18.33;;
26530;SDS011;14201;43.188;24.160;2023-02-28T07:47:28;18.05;;;13.85;;
26530;SDS011;14201;43.188;24.160;2023-02-28T07:49:54;13.88;;;11.23;;
26530;SDS011;14201;43.188;24.160;2023-02-28T07:52:19;14.57;;;11.02;;
26530;SDS011;14201;43.188;24.160;2023-02-28T07:54:45;14.35;;;11.25;;
26530;SDS011;14201;43.188;24.160;2023-02-28T07:57:11;15.27;;;12.02;;
26530;SDS011;14201;43.188;24.160;2023-02-28T07:59:36;14.40;;;11.48;;
26530;SDS011;14201;43.188;24.160;2023-02-28T08:02:02;18.00;;;12.45;;
26530;SDS011;14201;43.188;24.160;2023-02-28T08:04:27;14.25;;;12.05;;
26530;SDS011;14201;43.188;24.160;2023-02-28T08:06:56;14.15;;;11.68;;
26530;SDS011;14201;43.188;24.160;2023-02-28T08:09:22;16.45;;;12.25;;
26530;SDS011;14201;43.188;24.160;2023-02-28T08:11:47;14.15;;;11.32;;
26530;SDS011;14201;43.188;24.160;2023-02-28T08:14:13;15.18;;;11.75;;
26530;SDS011;14201;43.188;24.160;2023-02-28T08:16:39;15.32;;;11.75;;
26530;SDS011;14201;43.188;24.160;2023-02-28T08:19:04;14.65;;;11.77;;
26530;SDS011;14201;43.188;24.160;2023-02-28T08:21:30;13.95;;;11.38;;
26530;SDS011;14201;43.188;24.160;2023-02-28T08:23:55;14.68;;;11.13;;
26530;SDS011;14201;43.188;24.160;2023-02-28T08:26:21;13.40;;;12.00;;
26530;SDS011;14201;43.188;24.160;2023-02-28T08:28:47;12.65;;;11.18;;
26530;SDS011;14201;43.188;24.160;2023-02-28T08:31:14;14.32;;;11.82;;
26530;SDS011;14201;43.188;24.160;2023-02-28T08:33:41;15.27;;;12.10;;
26530;SDS011;14201;43.188;24.160;2023-02-28T08:36:08;13.95;;;11.45;;
26530;SDS011;14201;43.188;24.160;2023-02-28T08:38:34;13.40;;;11.55;;
26530;SDS011;14201;43.188;24.160;2023-02-28T08:41:03;15.60;;;12.43;;
26530;SDS011;14201;43.188;24.160;2023-02-28T08:43:32;18.50;;;11.80;;
26530;SDS011;14201;43.188;24.160;2023-02-28T08:45:58;15.10;;;12.10;;
26530;SDS011;14201;43.188;24.160;2023-02-28T08:48:25;16.67;;;12.90;;
26530;SDS011;14201;43.188;24.160;2023-02-28T08:51:03;16.33;;;12.82;;
26530;SDS011;14201;43.188;24.160;2023-02-28T08:53:31;16.27;;;12.45;;
26530;SDS011;14201;43.188;24.160;2023-02-28T08:56:01;15.98;;;12.90;;
26530;SDS011;14201;43.188;24.160;2023-02-28T08:58:31;14.88;;;12.05;;
26530;SDS011;14201;43.188;24.160;2023-02-28T09:00:57;16.08;;;12.85;;
26530;SDS011;14201;43.188;24.160;2023-02-28T09:03:23;18.27;;;14.45;;
26530;SDS011;14201;43.188;24.160;2023-02-28T09:05:56;19.23;;;15.13;;
26530;SDS011;14201;43.188;24.160;2023-02-28T09:08:23;18.45;;;14.65;;
26530;SDS011;14201;43.188;24.160;2023-02-28T09:10:50;13.93;;;11.93;;
26530;SDS011;14201;43.188;24.160;2023-02-28T09:13:16;19.10;;;14.98;;
26530;SDS011;14201;43.188;24.160;2023-02-28T09:15:42;23.50;;;19.08;;
26530;SDS011;14201;43.188;24.160;2023-02-28T09:18:07;27.00;;;19.90;;
26530;SDS011;14201;43.188;24.160;2023-02-28T09:20:33;22.25;;;16.60;;
26530;SDS011;14201;43.188;24.160;2023-02-28T09:22:58;19.17;;;15.27;;
26530;SDS011;14201;43.188;24.160;2023-02-28T09:25:24;15.02;;;12.15;;
26530;SDS011;14201;43.188;24.160;2023-02-28T09:27:50;13.90;;;10.50;;
26530;SDS011;14201;43.188;24.160;2023-02-28T09:30:15;18.42;;;13.07;;
26530;SDS011;14201;43.188;24.160;2023-02-28T09:32:41;17.08;;;13.65;;
26530;SDS011;14201;43.188;24.160;2023-02-28T09:35:07;19.48;;;14.40;;
26530;SDS011;14201;43.188;24.160;2023-02-28T09:37:38;20.08;;;14.95;;
26530;SDS011;14201;43.188;24.160;2023-02-28T09:40:04;21.50;;;16.20;;
26530;SDS011;14201;43.188;24.160;2023-02-28T09:42:31;24.35;;;20.13;;
26530;SDS011;14201;43.188;24.160;2023-02-28T09:44:59;17.70;;;13.80;;
26530;SDS011;14201;43.188;24.160;2023-02-28T09:47:31;25.63;;;20.80;;
26530;SDS011;14201;43.188;24.160;2023-02-28T09:52:59;20.08;;;14.55;;
26530;SDS011;14201;43.188;24.160;2023-02-28T09:58:10;24.50;;;15.15;;
26530;SDS011;14201;43.188;24.160;2023-02-28T10:00:49;21.60;;;16.25;;
26530;SDS011;14201;43.188;24.160;2023-02-28T10:03:27;17.38;;;13.95;;
26530;SDS011;14201;43.188;24.160;2023-02-28T10:08:34;15.15;;;12.18;;
26530;SDS011;14201;43.188;24.160;2023-02-28T10:11:16;21.75;;;16.55;;
26530;SDS011;14201;43.188;24.160;2023-02-28T10:17:02;19.15;;;14.68;;
26530;SDS011;14201;43.188;24.160;2023-02-28T10:20:07;28.38;;;16.67;;
26530;SDS011;14201;43.188;24.160;2023-02-28T10:22:38;21.55;;;13.27;;
26530;SDS011;14201;43.188;24.160;2023-02-28T10:25:18;18.95;;;14.23;;
26530;SDS011;14201;43.188;24.160;2023-02-28T10:27:46;22.92;;;14.60;;
26530;SDS011;14201;43.188;24.160;2023-02-28T10:30:12;18.55;;;13.93;;
26530;SDS011;14201;43.188;24.160;2023-02-28T10:32:39;17.80;;;12.95;;
26530;SDS011;14201;43.188;24.160;2023-02-28T10:35:15;15.48;;;12.55;;
26530;SDS011;14201;43.188;24.160;2023-02-28T10:38:05;14.32;;;12.13;;
26530;SDS011;14201;43.188;24.160;2023-02-28T10:40:41;19.08;;;13.93;;
26530;SDS011;14201;43.188;24.160;2023-02-28T10:45:37;18.40;;;13.18;;
26530;SDS011;14201;43.188;24.160;2023-02-28T10:50:57;19.88;;;13.18;;
26530;SDS011;14201;43.188;24.160;2023-02-28T11:01:38;21.58;;;14.57;;
26530;SDS011;14201;43.188;24.160;2023-02-28T11:04:19;20.80;;;15.77;;
26530;SDS011;14201;43.188;24.160;2023-02-28T11:06:46;15.10;;;11.75;;
26530;SDS011;14201;43.188;24.160;2023-02-28T11:11:54;20.73;;;14.05;;
26530;SDS011;14201;43.188;24.160;2023-02-28T11:14:21;18.67;;;13.50;;
26530;SDS011;14201;43.188;24.160;2023-02-28T11:16:51;22.35;;;15.63;;
26530;SDS011;14201;43.188;24.160;2023-02-28T11:19:27;20.70;;;14.05;;
26530;SDS011;14201;43.188;24.160;2023-02-28T11:22:00;16.45;;;13.48;;
26530;SDS011;14201;43.188;24.160;2023-02-28T11:24:33;20.38;;;13.30;;
26530;SDS011;14201;43.188;24.160;2023-02-28T11:27:06;17.40;;;12.90;;
26530;SDS011;14201;43.188;24.160;2023-02-28T11:29:49;19.85;;;12.25;;
26530;SDS011;14201;43.188;24.160;2023-02-28T11:32:33;18.33;;;14.02;;
26530;SDS011;14201;43.188;24.160;2023-02-28T11:35:23;23.02;;;15.05;;
26530;SDS011;14201;43.188;24.160;2023-02-28T11:40:16;23.27;;;17.10;;
26530;SDS011;14201;43.188;24.160;2023-02-28T11:48:24;23.55;;;15.65;;
26530;SDS011;14201;43.188;24.160;2023-02-28T11:56:19;24.08;;;16.05;;
26530;SDS011;14201;43.188;24.160;2023-02-28T11:58:57;26.90;;;20.60;;
26530;SDS011;14201;43.188;24.160;2023-02-28T12:01:32;21.55;;;15.70;;
26530;SDS011;14201;43.188;24.160;2023-02-28T12:04:25;22.00;;;15.57;;
26530;SDS011;14201;43.188;24.160;2023-02-28T12:09:47;20.55;;;14.48;;
26530;SDS011;14201;43.188;24.160;2023-02-28T12:12:39;22.20;;;15.73;;
26530;SDS011;14201;43.188;24.160;2023-02-28T12:18:15;22.40;;;15.57;;
26530;SDS011;14201;43.188;24.160;2023-02-28T12:26:54;21.85;;;15.85;;
26530;SDS011;14201;43.188;24.160;2023-02-28T12:29:24;23.42;;;16.50;;
26530;SDS011;14201;43.188;24.160;2023-02-28T12:34:27;30.77;;;19.42;;
26530;SDS011;14201;43.188;24.160;2023-02-28T12:36:56;26.95;;;19.58;;
26530;SDS011;14201;43.188;24.160;2023-02-28T12:39:32;25.63;;;18.23;;
26530;SDS011;14201;43.188;24.160;2023-02-28T12:42:11;30.75;;;18.75;;
26530;SDS011;14201;43.188;24.160;2023-02-28T12:50:06;24.52;;;18.20;;
26530;SDS011;14201;43.188;24.160;2023-02-28T12:55:54;24.60;;;16.60;;
26530;SDS011;14201;43.188;24.160;2023-02-28T12:58:17;22.70;;;16.10;;
26530;SDS011;14201;43.188;24.160;2023-02-28T13:11:28;25.55;;;17.63;;
26530;SDS011;14201;43.188;24.160;2023-02-28T13:13:57;19.30;;;13.48;;
26530;SDS011;14201;43.188;24.160;2023-02-28T13:16:54;25.42;;;18.05;;
26530;SDS011;14201;43.188;24.160;2023-02-28T13:19:20;25.55;;;18.08;;
26530;SDS011;14201;43.188;24.160;2023-02-28T13:21:48;26.40;;;18.10;;
26530;SDS011;14201;43.188;24.160;2023-02-28T13:24:49;30.13;;;19.33;;
26530;SDS011;14201;43.188;24.160;2023-02-28T13:27:22;27.63;;;19.48;;
26530;SDS011;14201;43.188;24.160;2023-02-28T13:36:06;27.83;;;20.08;;
26530;SDS011;14201;43.188;24.160;2023-02-28T13:38:34;27.77;;;19.67;;
26530;SDS011;14201;43.188;24.160;2023-02-28T13:44:02;35.20;;;22.17;;
26530;SDS011;14201;43.188;24.160;2023-02-28T13:46:34;27.20;;;18.77;;
26530;SDS011;14201;43.188;24.160;2023-02-28T13:52:12;26.33;;;18.80;;
26530;SDS011;14201;43.188;24.160;2023-02-28T14:05:30;29.83;;;19.25;;
26530;SDS011;14201;43.188;24.160;2023-02-28T14:12:59;32.63;;;20.92;;
26530;SDS011;14201;43.188;24.160;2023-02-28T14:15:30;31.17;;;20.73;;
26530;SDS011;14201;43.188;24.160;2023-02-28T14:18:05;31.83;;;20.48;;
26530;SDS011;14201;43.188;24.160;2023-02-28T14:20:40;35.00;;;21.80;;
26530;SDS011;14201;43.188;24.160;2023-02-28T14:31:09;30.48;;;19.08;;
26530;SDS011;14201;43.188;24.160;2023-02-28T14:33:46;32.25;;;20.08;;
26530;SDS011;14201;43.188;24.160;2023-02-28T14:36:52;32.92;;;20.60;;
26530;SDS011;14201;43.188;24.160;2023-02-28T14:41:41;33.10;;;21.48;;
26530;SDS011;14201;43.188;24.160;2023-02-28T14:44:18;32.15;;;21.65;;
26530;SDS011;14201;43.188;24.160;2023-02-28T14:46:47;33.42;;;22.13;;
26530;SDS011;14201;43.188;24.160;2023-02-28T14:52:07;30.95;;;21.25;;
26530;SDS011;14201;43.188;24.160;2023-02-28T14:54:42;36.53;;;24.67;;
26530;SDS011;14201;43.188;24.160;2023-02-28T15:00:18;31.10;;;20.48;;
26530;SDS011;14201;43.188;24.160;2023-02-28T15:02:56;35.50;;;24.70;;
26530;SDS011;14201;43.188;24.160;2023-02-28T15:05:27;28.58;;;18.88;;
26530;SDS011;14201;43.188;24.160;2023-02-28T15:10:39;30.02;;;20.10;;
26530;SDS011;14201;43.188;24.160;2023-02-28T15:13:13;25.38;;;18.55;;
26530;SDS011;14201;43.188;24.160;2023-02-28T15:18:26;31.50;;;20.92;;
26530;SDS011;14201;43.188;24.160;2023-02-28T15:21:02;34.40;;;21.00;;
26530;SDS011;14201;43.188;24.160;2023-02-28T15:23:31;29.52;;;19.73;;
26530;SDS011;14201;43.188;24.160;2023-02-28T15:26:00;27.92;;;18.92;;
26530;SDS011;14201;43.188;24.160;2023-02-28T15:28:25;27.15;;;18.20;;
26530;SDS011;14201;43.188;24.160;2023-02-28T15:30:54;29.55;;;20.17;;
26530;SDS011;14201;43.188;24.160;2023-02-28T15:33:25;27.95;;;19.48;;
26530;SDS011;14201;43.188;24.160;2023-02-28T15:36:05;29.17;;;19.92;;
26530;SDS011;14201;43.188;24.160;2023-02-28T15:38:36;30.20;;;18.70;;
26530;SDS011;14201;43.188;24.160;2023-02-28T15:41:02;28.58;;;18.85;;
26530;SDS011;14201;43.188;24.160;2023-02-28T15:48:36;35.10;;;21.58;;
26530;SDS011;14201;43.188;24.160;2023-02-28T15:51:32;30.98;;;20.58;;
26530;SDS011;14201;43.188;24.160;2023-02-28T15:54:02;32.83;;;21.40;;
26530;SDS011;14201;43.188;24.160;2023-02-28T15:56:33;33.85;;;20.83;;
26530;SDS011;14201;43.188;24.160;2023-02-28T16:04:06;32.93;;;20.00;;
26530;SDS011;14201;43.188;24.160;2023-02-28T16:06:39;30.85;;;20.38;;
26530;SDS011;14201;43.188;24.160;2023-02-28T16:09:08;27.45;;;18.73;;
26530;SDS011;14201;43.188;24.160;2023-02-28T16:11:37;26.13;;;17.50;;
26530;SDS011;14201;43.188;24.160;2023-02-28T16:14:06;29.48;;;18.60;;
26530;SDS011;14201;43.188;24.160;2023-02-28T16:16:41;26.67;;;17.75;;
26530;SDS011;14201;43.188;24.160;2023-02-28T16:19:08;22.95;;;16.33;;
26530;SDS011;14201;43.188;24.160;2023-02-28T16:21:33;24.73;;;16.80;;
26530;SDS011;14201;43.188;24.160;2023-02-28T16:23:59;57.92;;;38.75;;
26530;SDS011;14201;43.188;24.160;2023-02-28T16:26:24;38.97;;;25.27;;
26530;SDS011;14201;43.188;24.160;2023-02-28T16:28:52;30.33;;;21.48;;
26530;SDS011;14201;43.188;24.160;2023-02-28T16:31:18;27.50;;;18.52;;
26530;SDS011;14201;43.188;24.160;2023-02-28T16:33:44;27.30;;;18.70;;
26530;SDS011;14201;43.188;24.160;2023-02-28T16:36:15;24.17;;;17.30;;
26530;SDS011;14201;43.188;24.160;2023-02-28T16:38:42;25.08;;;16.25;;
26530;SDS011;14201;43.188;24.160;2023-02-28T16:41:09;22.73;;;15.50;;
26530;SDS011;14201;43.188;24.160;2023-02-28T16:43:47;22.98;;;16.15;;
26530;SDS011;14201;43.188;24.160;2023-02-28T16:46:15;30.00;;;18.13;;
26530;SDS011;14201;43.188;24.160;2023-02-28T16:48:42;31.83;;;20.63;;
26530;SDS011;14201;43.188;24.160;2023-02-28T16:51:15;39.60;;;26.30;;
26530;SDS011;14201;43.188;24.160;2023-02-28T16:53:42;75.15;;;48.17;;
26530;SDS011;14201;43.188;24.160;2023-02-28T16:56:16;83.90;;;53.88;;
26530;SDS011;14201;43.188;24.160;2023-02-28T16:58:44;38.75;;;27.20;;
26530;SDS011;14201;43.188;24.160;2023-02-28T17:01:10;39.72;;;27.02;;
26530;SDS011;14201;43.188;24.160;2023-02-28T17:03:36;28.20;;;18.73;;
26530;SDS011;14201;43.188;24.160;2023-02-28T17:06:03;24.17;;;16.02;;
26530;SDS011;14201;43.188;24.160;2023-02-28T17:10:57;25.88;;;17.40;;
26530;SDS011;14201;43.188;24.160;2023-02-28T17:13:23;27.73;;;19.08;;
26530;SDS011;14201;43.188;24.160;2023-02-28T17:15:48;29.75;;;19.40;;